sensor_id;sensor_type;location;lat;lon;timestamp;P1;durP1;ratioP1;P2;durP2;ratioP2
18340;SDS011;9296;48.084;16.352;2023-04-03T00:01:02;4.55;;;2.88;;
18340;SDS011;9296;48.084;16.352;2023-04-03T00:03:29;4.47;;;3.10;;
18340;SDS011;9296;48.084;16.352;2023-04-03T00:05:56;4.70;;;2.80;;
18340;SDS011;9296;48.084;16.352;2023-04-03T00:08:24;6.75;;;3.13;;
18340;SDS011;9296;48.084;16.352;2023-04-03T00:10:51;5.80;;;3.05;;
18340;SDS011;9296;48.084;16.352;2023-04-03T00:13:18;5.40;;;3.13;;
18340;SDS011;9296;48.084;16.352;2023-04-03T00:15:45;4.75;;;3.22;;
18340;SDS011;9296;48.084;16.352;2023-04-03T00:18:14;5.05;;;2.95;;
18340;SDS011;9296;48.084;16.352;2023-04-03T00:20:41;4.95;;;3.00;;
18340;SDS011;9296;48.084;16.352;2023-04-03T00:23:08;3.95;;;2.90;;
18340;SDS011;9296;48.084;16.352;2023-04-03T00:25:35;3.85;;;3.03;;
18340;SDS011;9296;48.084;16.352;2023-04-03T00:28:03;5.10;;;3.28;;
18340;SDS011;9296;48.084;16.352;2023-04-03T00:30:31;4.22;;;3.00;;
18340;SDS011;9296;48.084;16.352;2023-04-03T00:32:58;3.97;;;2.55;;
18340;SDS011;9296;48.084;16.352;2023-04-03T00:35:27;3.35;;;2.92;;
18340;SDS011;9296;48.084;16.352;2023-04-03T00:37:54;4.65;;;3.08;;
18340;SDS011;9296;48.084;16.352;2023-04-03T00:40:23;4.15;;;2.65;;
18340;SDS011;9296;48.084;16.352;2023-04-03T00:42:52;4.43;;;2.80;;
18340;SDS011;9296;48.084;16.352;2023-04-03T00:48:10;4.78;;;3.20;;
18340;SDS011;9296;48.084;16.352;2023-04-03T00:50:40;3.85;;;2.83;;
18340;SDS011;9296;48.084;16.352;2023-04-03T00:53:08;5.13;;;2.90;;
18340;SDS011;9296;48.084;16.352;2023-04-03T00:55:38;4.15;;;2.90;;
18340;SDS011;9296;48.084;16.352;2023-04-03T00:58:05;3.28;;;2.95;;
18340;SDS011;9296;48.084;16.352;2023-04-03T01:00:33;3.90;;;2.90;;
18340;SDS011;9296;48.084;16.352;2023-04-03T01:03:00;4.70;;;3.28;;
18340;SDS011;9296;48.084;16.352;2023-04-03T01:05:28;7.07;;;3.13;;
18340;SDS011;9296;48.084;16.352;2023-04-03T01:07:56;3.78;;;2.92;;
18340;SDS011;9296;48.084;16.352;2023-04-03T01:10:24;4.43;;;3.10;;
18340;SDS011;9296;48.084;16.352;2023-04-03T01:12:52;4.95;;;3.03;;
18340;SDS011;9296;48.084;16.352;2023-04-03T01:15:20;3.65;;;2.80;;
18340;SDS011;9296;48.084;16.352;2023-04-03T01:17:48;3.88;;;2.83;;
18340;SDS011;9296;48.084;16.352;2023-04-03T01:25:57;3.67;;;2.97;;
18340;SDS011;9296;48.084;16.352;2023-04-03T01:28:26;3.92;;;3.00;;
18340;SDS011;9296;48.084;16.352;2023-04-03T01:33:41;5.65;;;3.30;;
18340;SDS011;9296;48.084;16.352;2023-04-03T01:36:09;5.60;;;2.90;;
18340;SDS011;9296;48.084;16.352;2023-04-03T01:38:36;4.30;;;3.08;;
18340;SDS011;9296;48.084;16.352;2023-04-03T01:41:04;4.50;;;2.88;;
18340;SDS011;9296;48.084;16.352;2023-04-03T01:43:31;4.70;;;2.90;;
18340;SDS011;9296;48.084;16.352;2023-04-03T01:48:45;4.45;;;3.08;;
18340;SDS011;9296;48.084;16.352;2023-04-03T01:51:12;5.00;;;3.08;;
18340;SDS011;9296;48.084;16.352;2023-04-03T01:53:40;4.22;;;2.70;;
18340;SDS011;9296;48.084;16.352;2023-04-03T01:56:07;5.53;;;3.05;;
18340;SDS011;9296;48.084;16.352;2023-04-03T01:58:34;3.70;;;2.80;;
18340;SDS011;9296;48.084;16.352;2023-04-03T02:01:02;3.58;;;3.03;;
18340;SDS011;9296;48.084;16.352;2023-04-03T02:03:29;3.17;;;2.70;;
18340;SDS011;9296;48.084;16.352;2023-04-03T02:05:58;4.88;;;3.10;;
18340;SDS011;9296;48.084;16.352;2023-04-03T02:08:25;4.05;;;2.83;;
18340;SDS011;9296;48.084;16.352;2023-04-03T02:10:52;4.03;;;2.80;;
18340;SDS011;9296;48.084;16.352;2023-04-03T02:13:20;4.75;;;2.92;;
18340;SDS011;9296;48.084;16.352;2023-04-03T02:15:47;4.00;;;3.22;;
18340;SDS011;9296;48.084;16.352;2023-04-03T02:18:14;5.85;;;3.30;;
18340;SDS011;9296;48.084;16.352;2023-04-03T02:20:41;3.85;;;2.95;;
18340;SDS011;9296;48.084;16.352;2023-04-03T02:23:10;3.88;;;3.10;;
18340;SDS011;9296;48.084;16.352;2023-04-03T02:25:37;4.85;;;3.30;;
18340;SDS011;9296;48.084;16.352;2023-04-03T02:28:05;4.40;;;2.80;;
18340;SDS011;9296;48.084;16.352;2023-04-03T02:30:32;4.68;;;2.92;;
18340;SDS011;9296;48.084;16.352;2023-04-03T02:32:59;4.53;;;3.08;;
18340;SDS011;9296;48.084;16.352;2023-04-03T02:35:26;5.30;;;3.00;;
18340;SDS011;9296;48.084;16.352;2023-04-03T02:37:54;5.03;;;3.15;;
18340;SDS011;9296;48.084;16.352;2023-04-03T02:40:22;3.95;;;3.13;;
18340;SDS011;9296;48.084;16.352;2023-04-03T02:42:49;5.85;;;3.38;;
18340;SDS011;9296;48.084;16.352;2023-04-03T02:45:17;4.50;;;3.50;;
18340;SDS011;9296;48.084;16.352;2023-04-03T02:47:44;6.43;;;3.70;;
18340;SDS011;9296;48.084;16.352;2023-04-03T02:50:11;5.07;;;3.28;;
18340;SDS011;9296;48.084;16.352;2023-04-03T02:52:38;5.93;;;3.53;;
18340;SDS011;9296;48.084;16.352;2023-04-03T02:55:06;5.78;;;3.67;;
18340;SDS011;9296;48.084;16.352;2023-04-03T02:57:35;6.18;;;3.35;;
18340;SDS011;9296;48.084;16.352;2023-04-03T03:00:02;5.57;;;3.72;;
18340;SDS011;9296;48.084;16.352;2023-04-03T03:05:33;6.32;;;3.80;;
18340;SDS011;9296;48.084;16.352;2023-04-03T03:08:01;4.47;;;3.63;;
18340;SDS011;9296;48.084;16.352;2023-04-03T03:10:28;4.82;;;3.40;;
18340;SDS011;9296;48.084;16.352;2023-04-03T03:12:56;5.28;;;3.40;;
18340;SDS011;9296;48.084;16.352;2023-04-03T03:15:23;4.03;;;3.00;;
18340;SDS011;9296;48.084;16.352;2023-04-03T03:17:51;5.65;;;3.42;;
18340;SDS011;9296;48.084;16.352;2023-04-03T03:20:18;4.70;;;3.40;;
18340;SDS011;9296;48.084;16.352;2023-04-03T03:22:46;4.47;;;3.20;;
18340;SDS011;9296;48.084;16.352;2023-04-03T03:25:13;3.90;;;3.08;;
18340;SDS011;9296;48.084;16.352;2023-04-03T03:27:40;4.35;;;2.80;;
18340;SDS011;9296;48.084;16.352;2023-04-03T03:30:10;3.85;;;2.85;;
18340;SDS011;9296;48.084;16.352;2023-04-03T03:32:37;4.18;;;3.30;;
18340;SDS011;9296;48.084;16.352;2023-04-03T03:35:05;3.63;;;2.97;;
18340;SDS011;9296;48.084;16.352;2023-04-03T03:37:32;3.45;;;2.50;;
18340;SDS011;9296;48.084;16.352;2023-04-03T03:39:59;3.45;;;2.58;;
18340;SDS011;9296;48.084;16.352;2023-04-03T03:42:26;4.65;;;2.92;;
18340;SDS011;9296;48.084;16.352;2023-04-03T03:44:53;4.60;;;2.80;;
18340;SDS011;9296;48.084;16.352;2023-04-03T03:47:22;3.75;;;2.75;;
18340;SDS011;9296;48.084;16.352;2023-04-03T03:49:50;3.28;;;2.83;;
18340;SDS011;9296;48.084;16.352;2023-04-03T03:52:17;4.00;;;2.90;;
18340;SDS011;9296;48.084;16.352;2023-04-03T03:54:44;3.85;;;2.88;;
18340;SDS011;9296;48.084;16.352;2023-04-03T03:57:11;5.63;;;3.20;;
18340;SDS011;9296;48.084;16.352;2023-04-03T03:59:40;4.38;;;2.97;;
18340;SDS011;9296;48.084;16.352;2023-04-03T04:02:07;4.30;;;2.90;;
18340;SDS011;9296;48.084;16.352;2023-04-03T04:04:36;4.72;;;2.92;;
18340;SDS011;9296;48.084;16.352;2023-04-03T04:07:03;6.07;;;3.25;;
18340;SDS011;9296;48.084;16.352;2023-04-03T04:09:30;4.78;;;3.25;;
18340;SDS011;9296;48.084;16.352;2023-04-03T04:11:57;3.75;;;3.05;;
18340;SDS011;9296;48.084;16.352;2023-04-03T04:14:25;4.00;;;3.10;;
18340;SDS011;9296;48.084;16.352;2023-04-03T04:16:52;3.88;;;3.15;;
18340;SDS011;9296;48.084;16.352;2023-04-03T04:19:19;4.05;;;3.00;;
18340;SDS011;9296;48.084;16.352;2023-04-03T04:21:48;4.75;;;3.15;;
18340;SDS011;9296;48.084;16.352;2023-04-03T04:24:15;4.03;;;3.20;;
18340;SDS011;9296;48.084;16.352;2023-04-03T04:26:42;4.80;;;2.97;;
18340;SDS011;9296;48.084;16.352;2023-04-03T04:29:09;3.92;;;3.00;;
18340;SDS011;9296;48.084;16.352;2023-04-03T04:34:24;5.25;;;3.03;;
18340;SDS011;9296;48.084;16.352;2023-04-03T04:36:52;5.22;;;3.03;;
18340;SDS011;9296;48.084;16.352;2023-04-03T04:39:19;4.72;;;3.00;;
18340;SDS011;9296;48.084;16.352;2023-04-03T04:41:46;3.80;;;2.80;;
18340;SDS011;9296;48.084;16.352;2023-04-03T04:44:14;4.18;;;2.95;;
18340;SDS011;9296;48.084;16.352;2023-04-03T04:46:41;3.50;;;2.67;;
18340;SDS011;9296;48.084;16.352;2023-04-03T04:49:09;4.22;;;2.92;;
18340;SDS011;9296;48.084;16.352;2023-04-03T04:51:36;4.18;;;2.88;;
18340;SDS011;9296;48.084;16.352;2023-04-03T04:54:05;3.17;;;2.60;;
18340;SDS011;9296;48.084;16.352;2023-04-03T04:56:32;4.60;;;3.22;;
18340;SDS011;9296;48.084;16.352;2023-04-03T04:58:59;4.80;;;2.75;;
18340;SDS011;9296;48.084;16.352;2023-04-03T05:01:45;4.30;;;2.97;;
18340;SDS011;9296;48.084;16.352;2023-04-03T05:04:12;5.00;;;3.58;;
18340;SDS011;9296;48.084;16.352;2023-04-03T05:06:40;3.92;;;2.65;;
18340;SDS011;9296;48.084;16.352;2023-04-03T05:09:08;4.97;;;3.05;;
18340;SDS011;9296;48.084;16.352;2023-04-03T05:11:36;3.72;;;2.80;;
18340;SDS011;9296;48.084;16.352;2023-04-03T05:14:03;3.67;;;2.90;;
18340;SDS011;9296;48.084;16.352;2023-04-03T05:16:31;3.00;;;2.63;;
18340;SDS011;9296;48.084;16.352;2023-04-03T05:18:58;3.90;;;2.83;;
18340;SDS011;9296;48.084;16.352;2023-04-03T05:21:25;4.43;;;3.40;;
18340;SDS011;9296;48.084;16.352;2023-04-03T05:23:54;7.93;;;3.20;;
18340;SDS011;9296;48.084;16.352;2023-04-03T05:26:22;5.22;;;3.05;;
18340;SDS011;9296;48.084;16.352;2023-04-03T05:28:50;4.18;;;3.03;;
18340;SDS011;9296;48.084;16.352;2023-04-03T05:34:21;5.22;;;2.95;;
18340;SDS011;9296;48.084;16.352;2023-04-03T05:36:48;5.47;;;3.20;;
18340;SDS011;9296;48.084;16.352;2023-04-03T05:39:16;4.35;;;2.88;;
18340;SDS011;9296;48.084;16.352;2023-04-03T05:41:44;7.05;;;3.28;;
18340;SDS011;9296;48.084;16.352;2023-04-03T05:44:11;4.47;;;3.10;;
18340;SDS011;9296;48.084;16.352;2023-04-03T05:46:39;3.80;;;3.15;;
18340;SDS011;9296;48.084;16.352;2023-04-03T05:49:06;4.43;;;2.88;;
18340;SDS011;9296;48.084;16.352;2023-04-03T05:51:34;4.22;;;3.20;;
18340;SDS011;9296;48.084;16.352;2023-04-03T05:54:03;3.97;;;2.85;;
18340;SDS011;9296;48.084;16.352;2023-04-03T05:56:32;4.10;;;2.80;;
18340;SDS011;9296;48.084;16.352;2023-04-03T05:59:01;4.95;;;3.08;;
18340;SDS011;9296;48.084;16.352;2023-04-03T06:04:32;4.55;;;2.78;;
18340;SDS011;9296;48.084;16.352;2023-04-03T06:06:59;5.70;;;3.10;;
18340;SDS011;9296;48.084;16.352;2023-04-03T06:09:27;7.60;;;2.97;;
18340;SDS011;9296;48.084;16.352;2023-04-03T06:11:55;3.45;;;2.78;;
18340;SDS011;9296;48.084;16.352;2023-04-03T06:14:25;4.88;;;3.08;;
18340;SDS011;9296;48.084;16.352;2023-04-03T06:16:52;3.83;;;2.53;;
18340;SDS011;9296;48.084;16.352;2023-04-03T06:19:19;4.30;;;2.88;;
18340;SDS011;9296;48.084;16.352;2023-04-03T06:21:47;3.70;;;3.00;;
18340;SDS011;9296;48.084;16.352;2023-04-03T06:24:15;4.80;;;2.95;;
18340;SDS011;9296;48.084;16.352;2023-04-03T06:26:42;4.85;;;3.10;;
18340;SDS011;9296;48.084;16.352;2023-04-03T06:29:10;4.45;;;3.15;;
18340;SDS011;9296;48.084;16.352;2023-04-03T06:31:39;4.80;;;3.10;;
18340;SDS011;9296;48.084;16.352;2023-04-03T06:34:06;5.65;;;3.45;;
18340;SDS011;9296;48.084;16.352;2023-04-03T06:36:33;6.78;;;2.97;;
18340;SDS011;9296;48.084;16.352;2023-04-03T06:39:00;4.90;;;2.63;;
18340;SDS011;9296;48.084;16.352;2023-04-03T06:41:28;4.60;;;3.00;;
18340;SDS011;9296;48.084;16.352;2023-04-03T06:43:55;6.43;;;3.28;;
18340;SDS011;9296;48.084;16.352;2023-04-03T06:46:23;7.57;;;2.95;;
18340;SDS011;9296;48.084;16.352;2023-04-03T06:48:52;4.53;;;2.80;;
18340;SDS011;9296;48.084;16.352;2023-04-03T06:51:21;3.92;;;2.97;;
18340;SDS011;9296;48.084;16.352;2023-04-03T06:53:49;4.80;;;3.10;;
18340;SDS011;9296;48.084;16.352;2023-04-03T06:56:17;5.05;;;2.72;;
18340;SDS011;9296;48.084;16.352;2023-04-03T06:58:44;4.28;;;3.00;;
18340;SDS011;9296;48.084;16.352;2023-04-03T07:01:27;3.97;;;3.10;;
18340;SDS011;9296;48.084;16.352;2023-04-03T07:03:56;6.32;;;2.70;;
18340;SDS011;9296;48.084;16.352;2023-04-03T07:06:24;5.05;;;2.95;;
18340;SDS011;9296;48.084;16.352;2023-04-03T07:08:53;5.03;;;2.80;;
18340;SDS011;9296;48.084;16.352;2023-04-03T07:11:20;4.53;;;2.65;;
18340;SDS011;9296;48.084;16.352;2023-04-03T07:13:47;6.43;;;3.20;;
18340;SDS011;9296;48.084;16.352;2023-04-03T07:16:14;5.45;;;3.40;;
18340;SDS011;9296;48.084;16.352;2023-04-03T07:18:42;6.80;;;3.80;;
18340;SDS011;9296;48.084;16.352;2023-04-03T07:21:10;4.30;;;2.78;;
18340;SDS011;9296;48.084;16.352;2023-04-03T07:23:38;4.85;;;2.80;;
18340;SDS011;9296;48.084;16.352;2023-04-03T07:26:05;4.65;;;2.83;;
18340;SDS011;9296;48.084;16.352;2023-04-03T07:28:33;4.78;;;2.72;;
18340;SDS011;9296;48.084;16.352;2023-04-03T07:31:02;4.82;;;2.75;;
18340;SDS011;9296;48.084;16.352;2023-04-03T07:33:29;7.82;;;3.08;;
18340;SDS011;9296;48.084;16.352;2023-04-03T07:35:57;7.53;;;3.08;;
18340;SDS011;9296;48.084;16.352;2023-04-03T07:38:26;5.15;;;2.90;;
18340;SDS011;9296;48.084;16.352;2023-04-03T07:40:54;4.13;;;2.70;;
18340;SDS011;9296;48.084;16.352;2023-04-03T07:43:21;4.38;;;2.80;;
18340;SDS011;9296;48.084;16.352;2023-04-03T07:45:49;5.75;;;2.83;;
18340;SDS011;9296;48.084;16.352;2023-04-03T07:48:17;3.78;;;2.63;;
18340;SDS011;9296;48.084;16.352;2023-04-03T07:50:44;3.75;;;2.30;;
18340;SDS011;9296;48.084;16.352;2023-04-03T07:53:12;3.05;;;2.33;;
18340;SDS011;9296;48.084;16.352;2023-04-03T07:55:40;3.75;;;2.65;;
18340;SDS011;9296;48.084;16.352;2023-04-03T07:58:09;3.95;;;2.58;;
18340;SDS011;9296;48.084;16.352;2023-04-03T08:00:36;4.60;;;2.75;;
18340;SDS011;9296;48.084;16.352;2023-04-03T08:03:04;5.07;;;2.78;;
18340;SDS011;9296;48.084;16.352;2023-04-03T08:05:31;3.28;;;2.30;;
18340;SDS011;9296;48.084;16.352;2023-04-03T08:07:58;3.72;;;2.83;;
18340;SDS011;9296;48.084;16.352;2023-04-03T08:10:26;5.63;;;2.72;;
18340;SDS011;9296;48.084;16.352;2023-04-03T08:12:56;6.47;;;2.92;;
18340;SDS011;9296;48.084;16.352;2023-04-03T08:15:23;4.05;;;2.83;;
18340;SDS011;9296;48.084;16.352;2023-04-03T08:17:50;5.47;;;3.22;;
18340;SDS011;9296;48.084;16.352;2023-04-03T08:20:18;4.40;;;3.15;;
18340;SDS011;9296;48.084;16.352;2023-04-03T08:22:45;4.97;;;2.85;;
18340;SDS011;9296;48.084;16.352;2023-04-03T08:25:12;3.30;;;3.00;;
18340;SDS011;9296;48.084;16.352;2023-04-03T08:27:40;4.05;;;2.97;;
18340;SDS011;9296;48.084;16.352;2023-04-03T08:30:09;3.55;;;2.90;;
18340;SDS011;9296;48.084;16.352;2023-04-03T08:32:36;3.78;;;3.00;;
18340;SDS011;9296;48.084;16.352;2023-04-03T08:35:05;5.32;;;3.53;;
18340;SDS011;9296;48.084;16.352;2023-04-03T08:37:34;5.78;;;3.53;;
18340;SDS011;9296;48.084;16.352;2023-04-03T08:40:01;4.40;;;3.08;;
18340;SDS011;9296;48.084;16.352;2023-04-03T08:42:33;4.80;;;2.85;;
18340;SDS011;9296;48.084;16.352;2023-04-03T08:45:03;3.25;;;2.60;;
18340;SDS011;9296;48.084;16.352;2023-04-03T08:47:36;4.47;;;2.80;;
18340;SDS011;9296;48.084;16.352;2023-04-03T08:50:05;3.92;;;2.90;;
18340;SDS011;9296;48.084;16.352;2023-04-03T08:52:34;4.47;;;2.80;;
18340;SDS011;9296;48.084;16.352;2023-04-03T08:55:03;5.22;;;2.88;;
18340;SDS011;9296;48.084;16.352;2023-04-03T08:57:32;4.60;;;3.25;;
18340;SDS011;9296;48.084;16.352;2023-04-03T09:00:03;4.05;;;2.88;;
18340;SDS011;9296;48.084;16.352;2023-04-03T09:02:34;3.28;;;2.92;;
18340;SDS011;9296;48.084;16.352;2023-04-03T09:05:09;4.15;;;2.30;;
18340;SDS011;9296;48.084;16.352;2023-04-03T09:07:42;5.75;;;3.08;;
18340;SDS011;9296;48.084;16.352;2023-04-03T09:10:10;5.10;;;2.25;;
18340;SDS011;9296;48.084;16.352;2023-04-03T09:12:39;4.07;;;3.10;;
18340;SDS011;9296;48.084;16.352;2023-04-03T09:15:10;3.70;;;2.63;;
18340;SDS011;9296;48.084;16.352;2023-04-03T09:17:45;2.85;;;2.33;;
18340;SDS011;9296;48.084;16.352;2023-04-03T09:20:18;2.47;;;2.10;;
18340;SDS011;9296;48.084;16.352;2023-04-03T09:22:46;5.13;;;2.28;;
18340;SDS011;9296;48.084;16.352;2023-04-03T09:25:16;3.30;;;2.80;;
18340;SDS011;9296;48.084;16.352;2023-04-03T09:27:44;4.40;;;2.83;;
18340;SDS011;9296;48.084;16.352;2023-04-03T09:30:13;5.97;;;2.85;;
18340;SDS011;9296;48.084;16.352;2023-04-03T09:32:43;3.78;;;2.30;;
18340;SDS011;9296;48.084;16.352;2023-04-03T09:35:16;6.72;;;2.35;;
18340;SDS011;9296;48.084;16.352;2023-04-03T09:37:45;21.38;;;4.10;;
18340;SDS011;9296;48.084;16.352;2023-04-03T09:42:55;5.30;;;2.75;;
18340;SDS011;9296;48.084;16.352;2023-04-03T09:45:24;3.38;;;2.47;;
18340;SDS011;9296;48.084;16.352;2023-04-03T09:48:03;3.33;;;1.90;;
18340;SDS011;9296;48.084;16.352;2023-04-03T09:50:32;3.13;;;2.00;;
18340;SDS011;9296;48.084;16.352;2023-04-03T09:53:00;3.22;;;2.00;;
18340;SDS011;9296;48.084;16.352;2023-04-03T09:55:31;3.00;;;2.00;;
18340;SDS011;9296;48.084;16.352;2023-04-03T09:58:00;3.03;;;1.88;;
18340;SDS011;9296;48.084;16.352;2023-04-03T10:00:28;3.35;;;2.35;;
18340;SDS011;9296;48.084;16.352;2023-04-03T10:02:57;3.08;;;2.30;;
18340;SDS011;9296;48.084;16.352;2023-04-03T10:05:31;5.07;;;2.65;;
18340;SDS011;9296;48.084;16.352;2023-04-03T10:08:15;5.15;;;2.75;;
18340;SDS011;9296;48.084;16.352;2023-04-03T10:10:47;5.18;;;2.90;;
18340;SDS011;9296;48.084;16.352;2023-04-03T10:13:15;4.60;;;3.00;;
18340;SDS011;9296;48.084;16.352;2023-04-03T10:15:45;3.97;;;2.80;;
18340;SDS011;9296;48.084;16.352;2023-04-03T10:18:18;3.15;;;2.50;;
18340;SDS011;9296;48.084;16.352;2023-04-03T10:20:52;3.88;;;2.88;;
18340;SDS011;9296;48.084;16.352;2023-04-03T10:23:21;4.53;;;2.50;;
18340;SDS011;9296;48.084;16.352;2023-04-03T10:25:55;3.60;;;2.55;;
18340;SDS011;9296;48.084;16.352;2023-04-03T10:28:31;4.57;;;2.80;;
18340;SDS011;9296;48.084;16.352;2023-04-03T10:31:02;6.32;;;3.25;;
18340;SDS011;9296;48.084;16.352;2023-04-03T10:33:35;4.40;;;2.83;;
18340;SDS011;9296;48.084;16.352;2023-04-03T10:36:10;4.00;;;2.67;;
18340;SDS011;9296;48.084;16.352;2023-04-03T10:38:42;5.05;;;3.00;;
18340;SDS011;9296;48.084;16.352;2023-04-03T10:41:12;4.53;;;2.75;;
18340;SDS011;9296;48.084;16.352;2023-04-03T10:43:44;5.28;;;2.50;;
18340;SDS011;9296;48.084;16.352;2023-04-03T10:46:34;3.17;;;2.35;;
18340;SDS011;9296;48.084;16.352;2023-04-03T10:49:06;4.18;;;2.53;;
18340;SDS011;9296;48.084;16.352;2023-04-03T10:51:38;4.90;;;2.80;;
18340;SDS011;9296;48.084;16.352;2023-04-03T10:54:08;7.35;;;3.38;;
18340;SDS011;9296;48.084;16.352;2023-04-03T10:56:39;8.27;;;3.10;;
18340;SDS011;9296;48.084;16.352;2023-04-03T10:59:11;4.75;;;3.10;;
18340;SDS011;9296;48.084;16.352;2023-04-03T11:04:44;5.28;;;2.90;;
18340;SDS011;9296;48.084;16.352;2023-04-03T11:07:17;4.70;;;2.88;;
18340;SDS011;9296;48.084;16.352;2023-04-03T11:09:46;3.95;;;2.97;;
18340;SDS011;9296;48.084;16.352;2023-04-03T11:12:17;4.97;;;3.05;;
18340;SDS011;9296;48.084;16.352;2023-04-03T11:14:46;4.88;;;2.97;;
18340;SDS011;9296;48.084;16.352;2023-04-03T11:17:33;3.83;;;2.70;;
18340;SDS011;9296;48.084;16.352;2023-04-03T11:20:03;3.58;;;2.30;;
18340;SDS011;9296;48.084;16.352;2023-04-03T11:22:35;5.38;;;2.97;;
18340;SDS011;9296;48.084;16.352;2023-04-03T11:25:04;3.80;;;2.42;;
18340;SDS011;9296;48.084;16.352;2023-04-03T11:27:37;4.07;;;2.78;;
18340;SDS011;9296;48.084;16.352;2023-04-03T11:30:07;4.10;;;2.65;;
18340;SDS011;9296;48.084;16.352;2023-04-03T11:32:45;4.45;;;2.70;;
18340;SDS011;9296;48.084;16.352;2023-04-03T11:35:15;5.18;;;2.83;;
18340;SDS011;9296;48.084;16.352;2023-04-03T11:37:45;3.90;;;2.60;;
18340;SDS011;9296;48.084;16.352;2023-04-03T11:40:19;4.43;;;2.92;;
18340;SDS011;9296;48.084;16.352;2023-04-03T11:42:47;4.18;;;2.40;;
18340;SDS011;9296;48.084;16.352;2023-04-03T11:45:16;4.20;;;2.92;;
18340;SDS011;9296;48.084;16.352;2023-04-03T11:48:03;3.80;;;2.40;;
18340;SDS011;9296;48.084;16.352;2023-04-03T11:50:31;3.88;;;2.47;;
18340;SDS011;9296;48.084;16.352;2023-04-03T11:53:01;3.97;;;2.80;;
18340;SDS011;9296;48.084;16.352;2023-04-03T11:55:44;4.40;;;3.00;;
18340;SDS011;9296;48.084;16.352;2023-04-03T11:58:13;5.43;;;2.80;;
18340;SDS011;9296;48.084;16.352;2023-04-03T12:00:48;3.72;;;2.65;;
18340;SDS011;9296;48.084;16.352;2023-04-03T12:09:04;5.13;;;2.70;;
18340;SDS011;9296;48.084;16.352;2023-04-03T12:11:49;3.38;;;2.55;;
18340;SDS011;9296;48.084;16.352;2023-04-03T12:14:16;4.18;;;2.63;;
18340;SDS011;9296;48.084;16.352;2023-04-03T12:16:44;3.38;;;2.53;;
18340;SDS011;9296;48.084;16.352;2023-04-03T12:24:52;4.55;;;2.60;;
18340;SDS011;9296;48.084;16.352;2023-04-03T12:27:29;5.28;;;3.00;;
18340;SDS011;9296;48.084;16.352;2023-04-03T12:30:01;5.45;;;3.00;;
18340;SDS011;9296;48.084;16.352;2023-04-03T12:35:19;3.85;;;2.75;;
18340;SDS011;9296;48.084;16.352;2023-04-03T12:37:51;5.40;;;2.97;;
18340;SDS011;9296;48.084;16.352;2023-04-03T12:40:26;5.60;;;3.17;;
18340;SDS011;9296;48.084;16.352;2023-04-03T12:42:58;4.03;;;2.60;;
18340;SDS011;9296;48.084;16.352;2023-04-03T12:45:29;3.28;;;2.78;;
18340;SDS011;9296;48.084;16.352;2023-04-03T12:48:24;4.43;;;2.50;;
18340;SDS011;9296;48.084;16.352;2023-04-03T12:50:52;3.72;;;2.45;;
18340;SDS011;9296;48.084;16.352;2023-04-03T12:53:21;5.05;;;2.50;;
18340;SDS011;9296;48.084;16.352;2023-04-03T12:55:54;3.53;;;2.78;;
18340;SDS011;9296;48.084;16.352;2023-04-03T12:58:22;3.30;;;2.45;;
18340;SDS011;9296;48.084;16.352;2023-04-03T13:01:01;5.68;;;2.65;;
18340;SDS011;9296;48.084;16.352;2023-04-03T13:03:28;4.53;;;2.60;;
18340;SDS011;9296;48.084;16.352;2023-04-03T13:05:57;5.05;;;2.53;;
18340;SDS011;9296;48.084;16.352;2023-04-03T13:08:25;4.63;;;2.75;;
18340;SDS011;9296;48.084;16.352;2023-04-03T13:10:55;5.28;;;3.20;;
18340;SDS011;9296;48.084;16.352;2023-04-03T13:13:23;4.50;;;2.42;;
18340;SDS011;9296;48.084;16.352;2023-04-03T13:15:51;4.50;;;2.90;;
18340;SDS011;9296;48.084;16.352;2023-04-03T13:18:35;5.53;;;2.95;;
18340;SDS011;9296;48.084;16.352;2023-04-03T13:21:05;5.20;;;3.30;;
18340;SDS011;9296;48.084;16.352;2023-04-03T13:23:34;4.22;;;3.00;;
18340;SDS011;9296;48.084;16.352;2023-04-03T13:26:04;4.32;;;2.53;;
18340;SDS011;9296;48.084;16.352;2023-04-03T13:28:32;4.05;;;2.50;;
18340;SDS011;9296;48.084;16.352;2023-04-03T13:31:01;5.93;;;2.90;;
18340;SDS011;9296;48.084;16.352;2023-04-03T13:33:30;4.38;;;2.80;;
18340;SDS011;9296;48.084;16.352;2023-04-03T13:36:00;3.28;;;2.55;;
18340;SDS011;9296;48.084;16.352;2023-04-03T13:38:29;4.63;;;2.60;;
18340;SDS011;9296;48.084;16.352;2023-04-03T13:40:59;4.35;;;2.55;;
18340;SDS011;9296;48.084;16.352;2023-04-03T13:43:29;4.35;;;2.38;;
18340;SDS011;9296;48.084;16.352;2023-04-03T13:45:59;2.85;;;2.13;;
18340;SDS011;9296;48.084;16.352;2023-04-03T13:48:34;3.97;;;2.33;;
18340;SDS011;9296;48.084;16.352;2023-04-03T13:51:02;3.50;;;2.28;;
18340;SDS011;9296;48.084;16.352;2023-04-03T13:53:30;4.72;;;2.88;;
18340;SDS011;9296;48.084;16.352;2023-04-03T13:56:00;4.28;;;3.00;;
18340;SDS011;9296;48.084;16.352;2023-04-03T13:58:33;4.22;;;2.65;;
18340;SDS011;9296;48.084;16.352;2023-04-03T14:01:01;4.72;;;2.50;;
18340;SDS011;9296;48.084;16.352;2023-04-03T14:03:29;4.25;;;2.35;;
18340;SDS011;9296;48.084;16.352;2023-04-03T14:05:57;5.72;;;3.00;;
18340;SDS011;9296;48.084;16.352;2023-04-03T14:08:24;5.78;;;2.40;;
18340;SDS011;9296;48.084;16.352;2023-04-03T14:10:52;7.18;;;2.45;;
18340;SDS011;9296;48.084;16.352;2023-04-03T14:13:20;5.88;;;2.58;;
18340;SDS011;9296;48.084;16.352;2023-04-03T14:15:48;4.50;;;2.33;;
18340;SDS011;9296;48.084;16.352;2023-04-03T14:18:34;4.15;;;2.85;;
18340;SDS011;9296;48.084;16.352;2023-04-03T14:21:01;2.53;;;2.33;;
18340;SDS011;9296;48.084;16.352;2023-04-03T14:23:29;5.10;;;2.70;;
18340;SDS011;9296;48.084;16.352;2023-04-03T14:25:58;2.67;;;2.17;;
18340;SDS011;9296;48.084;16.352;2023-04-03T14:28:25;4.70;;;2.45;;
18340;SDS011;9296;48.084;16.352;2023-04-03T14:30:54;3.88;;;2.10;;
18340;SDS011;9296;48.084;16.352;2023-04-03T14:36:25;5.13;;;2.50;;
18340;SDS011;9296;48.084;16.352;2023-04-03T14:38:53;4.53;;;2.60;;
18340;SDS011;9296;48.084;16.352;2023-04-03T14:41:22;3.83;;;2.08;;
18340;SDS011;9296;48.084;16.352;2023-04-03T14:43:50;7.45;;;2.83;;
18340;SDS011;9296;48.084;16.352;2023-04-03T14:46:19;4.63;;;2.38;;
18340;SDS011;9296;48.084;16.352;2023-04-03T14:51:52;3.88;;;2.30;;
18340;SDS011;9296;48.084;16.352;2023-04-03T14:54:21;3.20;;;2.40;;
18340;SDS011;9296;48.084;16.352;2023-04-03T14:56:51;4.20;;;2.20;;
18340;SDS011;9296;48.084;16.352;2023-04-03T14:59:18;5.05;;;2.40;;
18340;SDS011;9296;48.084;16.352;2023-04-03T15:01:48;4.93;;;2.35;;
18340;SDS011;9296;48.084;16.352;2023-04-03T15:07:18;4.20;;;2.10;;
18340;SDS011;9296;48.084;16.352;2023-04-03T15:09:45;3.78;;;2.20;;
18340;SDS011;9296;48.084;16.352;2023-04-03T15:12:13;4.43;;;2.20;;
18340;SDS011;9296;48.084;16.352;2023-04-03T15:14:40;4.13;;;2.50;;
18340;SDS011;9296;48.084;16.352;2023-04-03T15:17:10;3.88;;;2.38;;
18340;SDS011;9296;48.084;16.352;2023-04-03T15:19:40;5.30;;;2.55;;
18340;SDS011;9296;48.084;16.352;2023-04-03T15:22:08;5.15;;;2.45;;
18340;SDS011;9296;48.084;16.352;2023-04-03T15:24:39;3.78;;;2.47;;
18340;SDS011;9296;48.084;16.352;2023-04-03T15:27:06;5.57;;;2.30;;
18340;SDS011;9296;48.084;16.352;2023-04-03T15:29:34;6.18;;;2.50;;
18340;SDS011;9296;48.084;16.352;2023-04-03T15:32:01;3.45;;;2.22;;
18340;SDS011;9296;48.084;16.352;2023-04-03T15:37:16;3.53;;;2.30;;
18340;SDS011;9296;48.084;16.352;2023-04-03T15:39:43;3.45;;;2.17;;
18340;SDS011;9296;48.084;16.352;2023-04-03T15:42:11;4.60;;;2.10;;
18340;SDS011;9296;48.084;16.352;2023-04-03T15:44:38;3.38;;;2.03;;
18340;SDS011;9296;48.084;16.352;2023-04-03T15:47:05;3.17;;;2.15;;
18340;SDS011;9296;48.084;16.352;2023-04-03T15:52:37;5.60;;;2.50;;
18340;SDS011;9296;48.084;16.352;2023-04-03T15:55:05;2.63;;;2.10;;
18340;SDS011;9296;48.084;16.352;2023-04-03T15:57:32;2.97;;;2.10;;
18340;SDS011;9296;48.084;16.352;2023-04-03T15:59:59;2.97;;;1.83;;